sensor_id;sensor_type;location;lat;lon;timestamp;pressure;altitude;pressure_sealevel;temperature
77355;BMP280;66422;51.202;19.936;2023-07-13T00:05:59;98962.33;;;19.82
77355;BMP280;66422;51.202;19.936;2023-07-13T00:21:20;98964.25;;;19.88
77355;BMP280;66422;51.202;19.936;2023-07-13T00:36:39;98968.42;;;19.60
77355;BMP280;66422;51.202;19.936;2023-07-13T00:52:07;98965.83;;;19.95
77355;BMP280;66422;51.202;19.936;2023-07-13T01:07:27;98967.64;;;19.92
77355;BMP280;66422;51.202;19.936;2023-07-13T01:22:50;98968.91;;;19.71
77355;BMP280;66422;51.202;19.936;2023-07-13T01:38:10;98969.59;;;19.82
77355;BMP280;66422;51.202;19.936;2023-07-13T01:53:31;98986.39;;;19.79
77355;BMP280;66422;51.202;19.936;2023-07-13T02:08:50;98995.71;;;19.70
77355;BMP280;66422;51.202;19.936;2023-07-13T02:24:10;99010.59;;;19.38
77355;BMP280;66422;51.202;19.936;2023-07-13T02:39:36;98987.80;;;19.38
77355;BMP280;66422;51.202;19.936;2023-07-13T02:54:57;98972.94;;;19.71
77355;BMP280;66422;51.202;19.936;2023-07-13T03:10:16;98973.80;;;19.72
77355;BMP280;66422;51.202;19.936;2023-07-13T03:25:40;98954.94;;;19.77
77355;BMP280;66422;51.202;19.936;2023-07-13T03:41:00;98959.41;;;19.79
77355;BMP280;66422;51.202;19.936;2023-07-13T03:56:22;98984.41;;;20.57
77355;BMP280;66422;51.202;19.936;2023-07-13T04:11:41;99016.08;;;20.76
77355;BMP280;66422;51.202;19.936;2023-07-13T04:27:01;99032.07;;;20.98
77355;BMP280;66422;51.202;19.936;2023-07-13T04:42:22;99033.19;;;21.33
77355;BMP280;66422;51.202;19.936;2023-07-13T04:57:42;99043.50;;;21.56
77355;BMP280;66422;51.202;19.936;2023-07-13T05:13:01;99052.73;;;21.21
77355;BMP280;66422;51.202;19.936;2023-07-13T05:28:21;99039.58;;;21.31
77355;BMP280;66422;51.202;19.936;2023-07-13T05:43:41;99028.08;;;21.50
77355;BMP280;66422;51.202;19.936;2023-07-13T05:59:00;99027.80;;;21.54
77355;BMP280;66422;51.202;19.936;2023-07-13T06:14:19;99021.80;;;22.45
77355;BMP280;66422;51.202;19.936;2023-07-13T06:29:40;99060.27;;;23.08
77355;BMP280;66422;51.202;19.936;2023-07-13T06:45:00;99061.61;;;23.59
77355;BMP280;66422;51.202;19.936;2023-07-13T07:00:20;99057.45;;;25.24
77355;BMP280;66422;51.202;19.936;2023-07-13T07:15:40;99053.11;;;26.81
77355;BMP280;66422;51.202;19.936;2023-07-13T07:31:01;99067.79;;;26.76
77355;BMP280;66422;51.202;19.936;2023-07-13T07:46:21;99068.87;;;27.10
77355;BMP280;66422;51.202;19.936;2023-07-13T08:01:40;99083.86;;;27.46
77355;BMP280;66422;51.202;19.936;2023-07-13T08:17:00;99104.15;;;26.98
77355;BMP280;66422;51.202;19.936;2023-07-13T08:32:21;99110.17;;;26.95
77355;BMP280;66422;51.202;19.936;2023-07-13T08:47:49;99111.91;;;27.00
77355;BMP280;66422;51.202;19.936;2023-07-13T09:03:20;99107.98;;;27.59
77355;BMP280;66422;51.202;19.936;2023-07-13T09:18:45;99111.59;;;25.10
77355;BMP280;66422;51.202;19.936;2023-07-13T09:34:13;99125.88;;;24.41
77355;BMP280;66422;51.202;19.936;2023-07-13T09:49:35;99128.62;;;24.86
77355;BMP280;66422;51.202;19.936;2023-07-13T10:05:14;99129.59;;;24.58
77355;BMP280;66422;51.202;19.936;2023-07-13T10:20:35;99129.25;;;24.06
77355;BMP280;66422;51.202;19.936;2023-07-13T10:36:27;99137.04;;;23.57
77355;BMP280;66422;51.202;19.936;2023-07-13T10:51:41;99158.17;;;23.00
77355;BMP280;66422;51.202;19.936;2023-07-13T11:07:10;99160.69;;;22.28
77355;BMP280;66422;51.202;19.936;2023-07-13T11:23:15;99178.54;;;21.65
77355;BMP280;66422;51.202;19.936;2023-07-13T11:38:42;99190.64;;;21.27
77355;BMP280;66422;51.202;19.936;2023-07-13T11:54:05;99232.08;;;19.34
77355;BMP280;66422;51.202;19.936;2023-07-13T12:09:27;99233.96;;;19.24
77355;BMP280;66422;51.202;19.936;2023-07-13T12:24:47;99218.84;;;19.20
77355;BMP280;66422;51.202;19.936;2023-07-13T12:40:19;99118.92;;;19.70
77355;BMP280;66422;51.202;19.936;2023-07-13T12:55:52;99162.27;;;19.83
77355;BMP280;66422;51.202;19.936;2023-07-13T13:11:13;99200.63;;;19.86
77355;BMP280;66422;51.202;19.936;2023-07-13T13:26:35;99182.13;;;19.07
77355;BMP280;66422;51.202;19.936;2023-07-13T13:41:54;99206.02;;;20.09
77355;BMP280;66422;51.202;19.936;2023-07-13T13:57:14;99245.89;;;20.39
77355;BMP280;66422;51.202;19.936;2023-07-13T14:12:34;99235.46;;;20.76
77355;BMP280;66422;51.202;19.936;2023-07-13T14:27:57;99258.76;;;21.47
77355;BMP280;66422;51.202;19.936;2023-07-13T14:43:18;99283.14;;;21.11
77355;BMP280;66422;51.202;19.936;2023-07-13T14:58:38;99294.05;;;21.02
77355;BMP280;66422;51.202;19.936;2023-07-13T15:14:00;99299.33;;;21.08
77355;BMP280;66422;51.202;19.936;2023-07-13T15:29:20;99305.36;;;21.34
77355;BMP280;66422;51.202;19.936;2023-07-13T15:44:39;99293.20;;;21.53
77355;BMP280;66422;51.202;19.936;2023-07-13T15:59:59;99303.48;;;21.14
77355;BMP280;66422;51.202;19.936;2023-07-13T16:15:20;99285.20;;;21.46
77355;BMP280;66422;51.202;19.936;2023-07-13T16:30:40;99282.78;;;21.79
77355;BMP280;66422;51.202;19.936;2023-07-13T16:46:00;99258.16;;;21.91
77355;BMP280;66422;51.202;19.936;2023-07-13T17:01:22;99268.52;;;22.78
77355;BMP280;66422;51.202;19.936;2023-07-13T17:16:42;99261.80;;;23.26
77355;BMP280;66422;51.202;19.936;2023-07-13T17:32:05;99271.41;;;22.49
77355;BMP280;66422;51.202;19.936;2023-07-13T17:47:26;99277.27;;;22.04
77355;BMP280;66422;51.202;19.936;2023-07-13T18:02:46;99291.52;;;21.84
77355;BMP280;66422;51.202;19.936;2023-07-13T18:18:09;99296.30;;;21.51
77355;BMP280;66422;51.202;19.936;2023-07-13T18:33:32;99307.78;;;20.88
77355;BMP280;66422;51.202;19.936;2023-07-13T18:48:54;99300.73;;;19.77
77355;BMP280;66422;51.202;19.936;2023-07-13T19:04:20;99326.68;;;19.47
77355;BMP280;66422;51.202;19.936;2023-07-13T19:19:42;99331.31;;;19.13
77355;BMP280;66422;51.202;19.936;2023-07-13T19:35:04;99351.77;;;18.85
77355;BMP280;66422;51.202;19.936;2023-07-13T19:50:25;99354.61;;;18.89
77355;BMP280;66422;51.202;19.936;2023-07-13T20:05:45;99434.14;;;18.41
77355;BMP280;66422;51.202;19.936;2023-07-13T20:21:09;99440.09;;;18.22
77355;BMP280;66422;51.202;19.936;2023-07-13T20:36:33;99434.70;;;18.00
77355;BMP280;66422;51.202;19.936;2023-07-13T20:51:53;99419.98;;;18.08
77355;BMP280;66422;51.202;19.936;2023-07-13T21:07:17;99412.88;;;17.96
77355;BMP280;66422;51.202;19.936;2023-07-13T21:22:37;99398.70;;;17.78
77355;BMP280;66422;51.202;19.936;2023-07-13T21:37:58;99393.98;;;17.87
77355;BMP280;66422;51.202;19.936;2023-07-13T22:08:43;99391.27;;;17.83
77355;BMP280;66422;51.202;19.936;2023-07-13T22:24:03;99389.59;;;17.48
77355;BMP280;66422;51.202;19.936;2023-07-13T22:39:27;99393.36;;;17.51
77355;BMP280;66422;51.202;19.936;2023-07-13T22:54:47;99379.20;;;17.05
77355;BMP280;66422;51.202;19.936;2023-07-13T23:10:18;99389.03;;;16.71
77355;BMP280;66422;51.202;19.936;2023-07-13T23:25:38;99394.25;;;16.01
77355;BMP280;66422;51.202;19.936;2023-07-13T23:40:58;99393.66;;;15.91
77355;BMP280;66422;51.202;19.936;2023-07-13T23:56:20;99396.58;;;15.76
